Time;durP1;ratioP1;P1;durP2;ratioP2;P2;SDS_P1;SDS_P2;PMS_P1;PMS_P2;Temp;Humidity;BMP_temperature;BMP_pressure;BME280_temperature;BME280_humidity;BME280_pressure;Samples;Min_cycle;Max_cycle;Signal;HPM_P1;HPM_P2
2022/09/16 00:01:29;;;;;;;7.00;3.83;;;12.70;99.90;;;12.93;100.00;97478.50;5063477;27;129379;-71
2022/09/16 00:03:58;;;;;;;7.63;4.43;;;12.70;99.90;;;12.97;100.00;97473.09;5082140;27;119755;-71
2022/09/16 00:06:31;;;;;;;8.75;4.35;;;12.70;99.90;;;13.00;100.00;97483.25;5082042;27;120028;-71
2022/09/16 00:09:01;;;;;;;6.15;3.95;;;12.70;99.90;;;13.02;100.00;97472.75;5062161;27;130406;-72
2022/09/16 00:11:33;;;;;;;8.80;4.10;;;12.70;99.90;;;13.05;100.00;97483.66;5061931;27;130016;-71
2022/09/16 00:14:01;;;;;;;8.18;4.03;;;12.70;99.90;;;13.09;100.00;97481.75;5046494;27;119187;-71
2022/09/16 00:16:30;;;;;;;6.97;4.20;;;12.70;99.90;;;13.12;100.00;97474.78;5061395;27;119454;-71
2022/09/16 00:19:01;;;;;;;8.55;4.30;;;12.60;99.90;;;13.13;100.00;97481.78;5044745;27;129474;-72
2022/09/16 00:21:32;;;;;;;8.15;4.30;;;12.60;99.90;;;13.13;100.00;97476.34;5061036;27;130513;-72
2022/09/16 00:24:01;;;;;;;7.32;4.13;;;12.50;99.90;;;13.12;100.00;97485.69;5045121;27;118644;-72
2022/09/16 00:26:31;;;;;;;11.38;4.43;;;12.50;99.90;;;13.13;100.00;97479.84;5061322;27;120046;-72
2022/09/16 00:28:59;;;;;;;8.90;4.07;;;12.50;99.90;;;13.14;100.00;97494.25;5045643;27;129047;-71
2022/09/16 00:31:28;;;;;;;6.65;4.07;;;12.50;99.90;;;13.12;100.00;97491.91;5061324;27;130017;-73
2022/09/16 00:33:57;;;;;;;8.43;4.55;;;12.50;99.90;;;13.10;100.00;97483.34;5061449;27;120038;-73
2022/09/16 00:36:25;;;;;;;9.02;4.35;;;12.50;99.90;;;13.11;100.00;97489.56;5061491;27;119468;-73
2022/09/16 00:38:56;;;;;;;9.65;4.35;;;12.50;99.90;;;13.14;100.00;97494.25;5060859;27;129999;-72
2022/09/16 00:41:31;;;;;;;7.68;4.40;;;12.50;99.90;;;13.14;100.00;97499.69;5060681;27;129545;-73
2022/09/16 00:44:03;;;;;;;8.57;4.07;;;12.50;99.90;;;13.17;100.00;97490.78;5059934;27;121707;-73
2022/09/16 00:46:38;;;;;;;9.05;4.47;;;12.50;99.90;;;13.15;100.00;97492.28;5062269;27;122555;-73
2022/09/16 00:49:15;;;;;;;8.15;3.95;;;12.40;99.90;;;13.13;100.00;97490.75;5060671;27;130639;-72
2022/09/16 00:51:47;;;;;;;7.60;4.35;;;12.30;99.90;;;13.06;100.00;97492.63;5060782;27;129548;-70
2022/09/16 00:54:18;;;;;;;7.80;4.40;;;12.30;99.90;;;13.06;100.00;97487.19;5060906;27;120147;-73
2022/09/16 00:56:51;;;;;;;8.65;4.43;;;12.40;99.90;;;13.07;100.00;97488.72;5080837;27;119354;-72
2022/09/16 00:59:26;;;;;;;7.90;4.53;;;12.40;99.90;;;13.03;100.00;97485.22;5080928;27;130215;-72
2022/09/16 01:01:56;;;;;;;9.27;4.28;;;12.40;99.90;;;13.04;100.00;97478.59;5066253;27;128398;-72
2022/09/16 01:04:31;;;;;;;7.57;4.10;;;12.40;99.90;;;13.01;100.00;97476.63;5049420;27;119739;-73
2022/09/16 01:07:00;;;;;;;8.65;4.00;;;12.30;99.90;;;13.01;100.00;97484.78;5081332;27;120159;-72
2022/09/16 01:09:32;;;;;;;9.95;4.45;;;12.30;99.90;;;13.02;100.00;97486.38;5079741;27;130235;-72
2022/09/16 01:12:01;;;;;;;9.38;4.68;;;12.30;99.90;;;13.01;100.00;97479.34;5080989;27;129800;-72
2022/09/16 01:17:49;;;;;;;8.18;4.45;;;12.20;99.90;;;12.87;100.00;97486.25;5050089;27;119178;-72
2022/09/16 01:21:05;;;;;;;9.53;4.30;;;12.20;99.90;;;12.83;100.00;97479.97;5065410;27;129448;-72
2022/09/16 01:24:14;;;;;;;6.95;4.43;;;12.20;99.90;;;12.75;100.00;97481.09;5020039;28;129466;-71
2022/09/16 01:27:18;;;;;;;8.50;4.25;;;12.30;99.90;;;12.74;100.00;97487.69;5081013;27;120743;-72
2022/09/16 01:30:18;;;;;;;7.70;4.40;;;12.30;99.90;;;12.70;100.00;97493.09;5062959;27;119939;-72
2022/09/16 01:33:03;;;;;;;7.80;3.95;;;12.30;99.90;;;12.69;100.00;97485.31;5080619;27;129911;-72
2022/09/16 01:36:07;;;;;;;9.10;4.30;;;12.30;99.90;;;12.71;100.00;97488.41;5080315;27;130220;-72
2022/09/16 01:39:00;;;;;;;8.70;4.68;;;12.30;99.90;;;12.66;100.00;97481.38;5079526;27;122295;-70
2022/09/16 01:41:39;;;;;;;8.05;4.18;;;12.30;99.90;;;12.66;100.00;97481.38;5080655;27;122248;-71
2022/09/16 01:44:19;;;;;;;7.07;4.43;;;12.30;99.90;;;12.64;100.00;97482.94;5080317;27;130169;-70
2022/09/16 01:46:56;;;;;;;9.68;4.25;;;12.30;99.90;;;12.61;100.00;97478.25;5081982;27;129577;-70
2022/09/16 01:49:40;;;;;;;6.65;3.60;;;12.30;99.90;;;12.55;100.00;97485.94;5080849;27;119860;-70
2022/09/16 01:52:22;;;;;;;6.32;3.78;;;12.30;99.90;;;12.55;100.00;97486.72;5080454;27;119387;-71
2022/09/16 01:54:59;;;;;;;9.32;4.22;;;12.40;99.90;;;12.54;100.00;97485.16;5064917;27;132887;-70
2022/09/16 01:57:37;;;;;;;6.15;3.58;;;12.30;99.90;;;12.57;100.00;97475.47;5080657;27;129905;-69
2022/09/16 02:00:10;;;;;;;7.45;3.78;;;12.30;99.90;;;12.51;100.00;97475.03;5080423;27;120074;-71
2022/09/16 02:02:45;;;;;;;9.82;3.97;;;12.30;99.90;;;12.50;100.00;97478.13;5062509;27;119392;-71
2022/09/16 02:05:20;;;;;;;8.68;3.83;;;12.30;99.90;;;12.52;100.00;97484.75;5078992;27;130150;-71
2022/09/16 02:07:56;;;;;;;6.07;3.30;;;12.20;99.90;;;12.52;100.00;97476.59;5064986;27;128183;-70
2022/09/16 02:10:30;;;;;;;7.38;3.42;;;12.30;99.90;;;12.52;100.00;97482.03;5080413;27;119813;-71
2022/09/16 02:13:06;;;;;;;8.38;3.70;;;12.20;99.90;;;12.43;100.00;97467.94;5080711;27;119081;-70
2022/09/16 02:15:35;;;;;;;5.13;2.53;;;12.20;99.90;;;12.46;100.00;97472.63;5064833;27;129944;-70
2022/09/16 02:18:09;;;;;;;7.18;3.58;;;12.20;99.90;;;12.43;100.00;97478.81;5079997;27;129758;-69
2022/09/16 02:20:45;;;;;;;7.45;3.95;;;12.20;99.90;;;12.42;100.00;97480.00;5080080;27;119885;-70
2022/09/16 02:23:19;;;;;;;7.03;3.30;;;12.20;99.90;;;12.45;100.00;97481.97;5080739;27;119494;-71
2022/09/16 02:25:50;;;;;;;8.85;3.28;;;12.10;99.90;;;12.44;100.00;97485.84;5061515;27;129863;-71
2022/09/16 02:28:25;;;;;;;6.57;3.40;;;12.10;99.90;;;12.43;100.00;97489.69;5080041;27;130473;-70
2022/09/16 02:31:00;;;;;;;8.00;4.00;;;12.10;99.90;;;12.40;100.00;97491.25;5078940;27;122490;-70
2022/09/16 02:33:33;;;;;;;7.57;3.72;;;12.10;99.90;;;12.34;100.00;97486.50;5080049;27;121892;-70
2022/09/16 02:36:07;;;;;;;8.35;4.30;;;12.10;99.90;;;12.34;100.00;97491.94;5061738;27;129696;-70
2022/09/16 02:38:41;;;;;;;7.25;3.60;;;12.10;99.90;;;12.32;100.00;97483.38;5079612;27;129867;-70
2022/09/16 02:41:13;;;;;;;7.05;3.28;;;12.00;99.90;;;12.26;100.00;97493.00;5080184;27;119987;-72
2022/09/16 02:43:42;;;;;;;4.25;2.90;;;12.10;99.90;;;12.19;100.00;97482.84;5080169;27;119871;-71
2022/09/16 02:46:23;;;;;;;9.98;3.95;;;12.00;99.90;;;12.17;100.00;97499.53;5080420;27;130320;-71
2022/09/16 02:49:03;;;;;;;5.75;3.17;;;12.00;99.90;;;12.15;100.00;97490.94;5065074;27;129691;-70
2022/09/16 02:51:44;;;;;;;8.07;3.25;;;12.00;99.90;;;12.18;100.00;97495.63;5083362;27;119494;-68
2022/09/16 02:54:20;;;;;;;8.60;3.30;;;12.00;99.90;;;12.18;100.00;97495.63;5065085;27;119368;-71
2022/09/16 02:56:48;;;;;;;6.67;3.00;;;12.00;99.90;;;12.16;100.00;97492.50;5066520;27;129731;-72
2022/09/16 02:59:19;;;;;;;7.22;3.15;;;11.90;99.90;;;12.13;100.00;97498.69;5082827;27;129300;-69
2022/09/16 03:01:47;;;;;;;5.15;2.85;;;11.90;99.90;;;12.08;100.00;97501.75;5083042;27;119701;-71
2022/09/16 03:04:19;;;;;;;7.88;3.28;;;11.90;99.90;;;12.07;100.00;97500.19;5083297;27;119862;-69
2022/09/16 03:06:49;;;;;;;5.25;3.20;;;11.90;99.90;;;12.08;100.00;97495.53;5067631;27;130565;-71
2022/09/16 03:09:22;;;;;;;10.18;4.50;;;11.80;99.90;;;12.09;100.00;97491.66;5051046;27;128654;-71
2022/09/16 03:12:33;;;;;;;6.47;3.47;;;11.80;99.90;;;12.08;100.00;97493.59;5083293;27;119678;-72
2022/09/16 03:15:24;;;;;;;4.57;3.00;;;11.80;99.90;;;12.00;100.00;97500.09;5083385;27;119525;-72
2022/09/16 03:18:42;;;;;;;5.60;3.00;;;11.80;99.90;;;11.99;100.00;97501.25;5082821;27;129855;-71
2022/09/16 03:21:21;;;;;;;8.95;3.40;;;11.80;99.90;;;11.99;100.00;97503.97;5044099;27;129691;-71
2022/09/16 03:24:00;;;;;;;7.20;3.08;;;11.80;99.90;;;12.00;100.00;97498.16;5081407;27;122065;-72
2022/09/16 03:26:36;;;;;;;7.00;3.08;;;11.80;99.90;;;11.97;100.00;97506.28;5082512;27;122010;-71
2022/09/16 03:29:16;;;;;;;6.20;2.67;;;11.70;99.90;;;11.98;100.00;97492.31;5082639;27;129808;-71
2022/09/16 03:31:54;;;;;;;6.10;2.65;;;11.70;99.90;;;11.95;100.00;97497.69;5082796;27;129836;-72
2022/09/16 03:34:30;;;;;;;5.20;2.67;;;11.70;99.90;;;11.94;100.00;97496.13;5086251;27;119287;-70
2022/09/16 03:37:03;;;;;;;8.23;3.17;;;11.70;99.90;;;11.99;100.00;97509.41;5067719;27;118840;-73
2022/09/16 03:39:33;;;;;;;7.38;2.83;;;11.70;99.90;;;11.98;100.00;97505.09;5082320;27;129974;-70
2022/09/16 03:42:06;;;;;;;6.78;2.92;;;11.70;99.90;;;11.98;100.00;97507.81;5082746;27;129477;-70
2022/09/16 03:44:38;;;;;;;6.30;3.20;;;11.70;99.90;;;12.00;100.00;97508.25;5080488;27;119495;-73
2022/09/16 03:47:07;;;;;;;5.47;2.88;;;11.60;99.90;;;11.94;100.00;97502.34;5082436;27;119774;-74
2022/09/16 03:49:37;;;;;;;6.10;2.83;;;11.60;99.90;;;11.95;100.00;97512.09;5080260;27;130194;-70
2022/09/16 03:52:06;;;;;;;5.95;3.40;;;11.60;99.90;;;11.89;100.00;97502.66;5082221;27;129491;-71
2022/09/16 03:54:37;;;;;;;4.35;2.53;;;11.60;99.90;;;11.85;100.00;97521.63;5066633;27;120196;-70
2022/09/16 03:57:06;;;;;;;6.45;3.05;;;11.60;99.90;;;11.88;100.00;97526.31;5066307;27;119112;-69
2022/09/16 03:59:35;;;;;;;5.80;2.90;;;11.60;99.90;;;11.87;100.00;97511.19;5080601;27;130425;-69
2022/09/16 04:02:03;;;;;;;6.60;2.55;;;11.60;99.90;;;11.90;100.00;97519.72;5081801;27;129639;-70
2022/09/16 04:04:32;;;;;;;5.30;2.70;;;11.60;99.90;;;11.88;100.00;97517.38;5082120;27;119440;-73
2022/09/16 04:07:01;;;;;;;5.57;2.65;;;11.60;99.90;;;11.91;100.00;97518.59;5081550;27;119609;-69
2022/09/16 04:09:29;;;;;;;4.97;2.80;;;11.60;99.90;;;11.88;100.00;97520.88;5062729;27;130510;-70
2022/09/16 04:11:59;;;;;;;5.28;2.83;;;11.60;99.90;;;11.87;100.00;97530.19;5066566;27;129743;-70
2022/09/16 04:14:28;;;;;;;6.53;2.78;;;11.60;99.90;;;11.92;100.00;97525.56;5080531;27;122190;-71
2022/09/16 04:16:57;;;;;;;6.38;2.65;;;11.60;99.90;;;11.93;100.00;97536.13;5081531;27;122320;-69
2022/09/16 04:19:26;;;;;;;4.50;2.80;;;11.60;99.90;;;11.92;100.00;97531.00;5080967;27;130132;-70
2022/09/16 04:21:54;;;;;;;6.95;2.83;;;11.60;99.90;;;12.00;100.00;97532.72;5084704;27;131158;-70
2022/09/16 04:24:23;;;;;;;7.10;3.28;;;11.70;99.90;;;12.06;100.00;97539.41;5081895;27;120099;-70
2022/09/16 04:26:52;;;;;;;6.25;2.97;;;11.70;99.90;;;12.08;100.00;97536.31;5080799;27;119832;-71
2022/09/16 04:29:22;;;;;;;5.57;3.03;;;11.70;99.90;;;12.03;100.00;97538.19;5062963;27;129950;-69
2022/09/16 04:31:50;;;;;;;6.80;3.00;;;11.70;99.90;;;12.02;100.00;97535.84;5080805;27;129654;-69
2022/09/16 04:34:19;;;;;;;6.80;3.42;;;11.60;99.90;;;11.95;100.00;97547.41;5081592;27;119370;-68
2022/09/16 04:36:47;;;;;;;10.45;3.72;;;11.60;99.90;;;11.91;100.00;97545.78;5066570;27;118239;-71
2022/09/16 04:39:16;;;;;;;5.85;2.92;;;11.50;99.90;;;11.87;100.00;97553.84;5065062;27;129131;-70
2022/09/16 04:41:45;;;;;;;5.68;2.92;;;11.50;99.90;;;11.75;100.00;97544.00;5066407;27;129723;-68
2022/09/16 04:44:14;;;;;;;6.85;3.30;;;11.50;99.90;;;11.78;100.00;97548.72;5081763;27;119560;-69
2022/09/16 04:46:44;;;;;;;5.38;3.55;;;11.50;99.90;;;11.80;100.00;97546.41;5083317;27;119349;-70
2022/09/16 04:49:12;;;;;;;6.93;3.45;;;11.40;99.90;;;11.70;100.00;97549.72;5081055;27;129751;-70
2022/09/16 04:51:41;;;;;;;8.48;3.47;;;11.40;99.90;;;11.61;100.00;97547.31;5049340;27;129276;-70
2022/09/16 04:54:10;;;;;;;6.45;3.50;;;11.30;99.90;;;11.63;100.00;97560.53;5081649;27;119420;-70
2022/09/16 04:56:39;;;;;;;6.82;3.17;;;11.30;99.90;;;11.83;100.00;97551.09;5066468;27;119256;-70
2022/09/16 04:59:10;;;;;;;6.90;3.33;;;11.40;99.90;;;11.98;100.00;97545.88;5062910;27;130261;-69
2022/09/16 05:01:40;;;;;;;8.30;3.40;;;11.50;99.90;;;12.02;100.00;97546.72;5080945;27;131182;-71
2022/09/16 05:04:10;;;;;;;6.75;3.00;;;11.50;99.90;;;12.16;100.00;97544.19;5061772;27;122720;-72
2022/09/16 05:06:41;;;;;;;9.35;3.50;;;11.60;99.90;;;12.27;100.00;97546.25;5081218;27;121775;-70
2022/09/16 05:09:12;;;;;;;6.38;3.30;;;11.60;99.90;;;12.36;100.00;97533.16;5080359;27;130907;-71
2022/09/16 05:11:41;;;;;;;6.10;2.70;;;11.70;99.90;;;12.49;98.01;97548.06;5081055;27;129954;-73
2022/09/16 05:14:15;;;;;;;5.80;2.80;;;11.70;97.30;;;12.52;96.91;97547.31;5081048;27;119881;-70
2022/09/16 05:16:45;;;;;;;10.32;3.17;;;11.70;94.80;;;12.47;95.81;97550.38;5066359;27;119723;-70
2022/09/16 05:19:16;;;;;;;6.03;2.97;;;11.80;87.20;;;12.49;95.92;97553.50;5081227;27;130277;-69
2022/09/16 05:21:45;;;;;;;7.38;3.45;;;11.80;88.30;;;12.52;95.15;97558.19;5080780;27;129318;-74
2022/09/16 05:24:14;;;;;;;6.07;2.92;;;11.90;75.80;;;12.54;93.89;97558.63;5081116;27;119673;-69
2022/09/16 05:26:44;;;;;;;7.10;2.70;;;11.90;63.30;;;12.56;93.08;97548.16;5081169;27;119802;-71
2022/09/16 05:29:15;;;;;;;12.40;3.22;;;11.90;54.10;;;12.63;92.67;97546.66;5079369;27;129588;-74
2022/09/16 05:31:46;;;;;;;7.60;3.60;;;11.90;48.10;;;12.68;92.03;97551.75;5062299;27;130814;-70
2022/09/16 05:34:20;;;;;;;9.93;2.97;;;12.00;42.80;;;12.67;90.80;97542.81;5080839;27;119606;-76
2022/09/16 05:36:52;;;;;;;6.72;2.85;;;12.00;34.60;;;12.79;90.08;97543.72;5066037;27;118999;-71
2022/09/16 05:39:21;;;;;;;9.63;3.03;;;12.00;28.50;;;12.91;89.33;97546.94;5080704;27;130385;-70
2022/09/16 05:41:53;;;;;;;10.32;3.10;;;12.10;24.50;;;12.99;88.20;97542.34;5065701;27;129404;-69
2022/09/16 05:44:22;;;;;;;6.53;2.70;;;12.20;21.70;;;13.12;87.81;97545.59;5081077;27;119620;-70
2022/09/16 05:46:51;;;;;;;9.02;2.72;;;12.20;18.00;;;13.21;86.93;97537.88;5064724;27;119357;-70
2022/09/16 05:49:22;;;;;;;12.15;2.95;;;12.30;13.40;;;13.21;85.87;97532.41;5080454;27;129744;-70
2022/09/16 05:51:52;;;;;;;6.25;2.33;;;12.30;5.00;;;13.25;85.11;97538.69;5080378;27;129482;-73
2022/09/16 05:54:23;;;;;;;5.03;2.20;;;12.40;1.00;;;13.26;84.74;97529.38;5079360;27;122002;-71
2022/09/16 05:56:52;;;;;;;6.65;2.72;;;12.40;1.10;;;13.41;84.56;97541.16;5081092;27;121772;-70
2022/09/16 05:59:22;;;;;;;9.73;2.67;;;12.50;1.00;;;13.54;83.87;97533.50;5080215;27;130043;-70
2022/09/16 06:01:50;;;;;;;11.13;2.35;;;12.60;1.00;;;13.58;82.60;97538.97;5080129;27;129638;-68
2022/09/16 06:04:20;;;;;;;8.93;2.40;;;12.70;1.00;;;13.67;81.58;97542.13;5065414;27;119063;-70
2022/09/16 06:06:48;;;;;;;9.07;2.80;;;12.70;1.00;;;13.77;81.29;97535.19;5080359;27;119726;-68
2022/09/16 06:09:20;;;;;;;8.73;2.42;;;12.80;1.00;;;13.85;81.16;97536.78;5080018;27;130288;-68
2022/09/16 06:11:53;;;;;;;7.45;2.47;;;13.00;1.00;;;14.06;79.48;97538.84;5080460;27;129864;-69
2022/09/16 06:14:23;;;;;;;6.63;2.30;;;13.00;1.00;;;14.30;79.34;97539.34;5065616;27;118039;-71
2022/09/16 06:16:52;;;;;;;6.03;1.98;;;13.30;1.00;;;14.31;78.40;97538.94;5080399;27;119578;-70
2022/09/16 06:19:22;;;;;;;7.03;2.60;;;13.30;1.00;;;14.35;77.54;97537.03;5063525;27;130031;-72
2022/09/16 06:21:50;;;;;;;7.47;2.92;;;13.30;1.00;;;14.31;76.74;97547.13;5065736;27;129231;-69
2022/09/16 06:24:20;;;;;;;6.78;2.20;;;13.20;1.00;;;14.47;76.89;97537.84;5068744;27;119159;-70
2022/09/16 06:26:50;;;;;;;11.40;2.20;;;13.20;1.00;;;14.42;77.81;97543.69;5065511;27;119435;-70
2022/09/16 06:29:19;;;;;;;10.75;2.75;;;13.40;1.00;;;14.48;75.72;97536.69;5083449;27;130602;-70
2022/09/16 06:31:47;;;;;;;8.75;2.40;;;13.30;1.00;;;14.48;75.81;97534.72;5065257;27;129621;-69
2022/09/16 06:34:18;;;;;;;7.53;2.30;;;13.40;1.00;;;14.73;75.17;97532.09;5068548;27;118493;-70
2022/09/16 06:36:48;;;;;;;5.88;2.00;;;13.60;1.00;;;14.72;73.65;97530.53;5084091;27;119885;-70
2022/09/16 06:39:17;;;;;;;9.18;2.38;;;13.60;1.00;;;14.74;73.50;97538.34;5083327;27;129830;-73
2022/09/16 06:41:45;;;;;;;11.93;2.65;;;13.70;1.00;;;14.88;72.73;97540.28;5083235;27;130087;-71
2022/09/16 06:44:14;;;;;;;8.75;2.72;;;13.80;1.00;;;14.98;72.74;97542.28;5050574;27;121299;-72
2022/09/16 06:46:43;;;;;;;10.20;2.47;;;13.80;1.00;;;14.97;72.46;97542.66;5085532;27;122580;-69
2022/09/16 06:49:11;;;;;;;7.47;2.28;;;13.90;1.00;;;15.02;69.29;97545.00;5083335;27;129966;-71
2022/09/16 06:51:40;;;;;;;8.15;1.90;;;13.90;1.00;;;15.00;70.20;97542.66;5068135;27;129818;-70
2022/09/16 06:54:11;;;;;;;7.10;1.80;;;13.80;1.00;;;14.92;69.70;97552.78;5083549;27;119747;-73
2022/09/16 06:56:40;;;;;;;5.55;1.90;;;13.90;1.00;;;14.86;68.89;97551.59;5083779;27;120387;-71
2022/09/16 06:59:11;;;;;;;7.88;2.22;;;13.80;1.00;;;15.10;68.96;97546.59;5067789;27;129717;-69
2022/09/16 07:01:40;;;;;;;6.45;2.00;;;14.00;1.00;;;15.18;66.42;97548.16;5083243;27;130103;-69
2022/09/16 07:04:12;;;;;;;5.10;1.90;;;14.00;1.00;;;15.14;68.11;97546.59;5064923;27;119914;-70
2022/09/16 07:06:41;;;;;;;8.52;2.35;;;14.10;1.00;;;15.38;67.99;97548.53;5083525;27;119376;-71
2022/09/16 07:09:11;;;;;;;5.85;1.42;;;14.30;1.00;;;15.42;65.43;97557.50;5081856;27;130129;-70
2022/09/16 07:11:40;;;;;;;5.75;2.13;;;14.30;1.00;;;15.39;65.86;97558.28;5082911;27;129490;-70
2022/09/16 07:14:09;;;;;;;9.10;1.92;;;14.30;1.00;;;15.70;67.53;97545.00;5068012;27;119349;-71
2022/09/16 07:16:37;;;;;;;5.65;1.90;;;14.70;1.00;;;15.64;65.02;97552.03;5083248;27;119569;-69
2022/09/16 07:19:06;;;;;;;5.72;1.85;;;14.50;1.00;;;15.56;64.99;97550.47;5082750;27;130072;-71
2022/09/16 07:21:34;;;;;;;6.53;1.95;;;14.50;1.00;;;15.61;65.15;97550.88;5067326;27;129519;-70
2022/09/16 07:24:04;;;;;;;7.13;1.90;;;14.50;1.00;;;15.76;65.45;97554.34;5083233;27;119710;-70
2022/09/16 07:26:36;;;;;;;6.63;2.63;;;14.60;1.00;;;15.94;65.81;97554.38;5083600;27;118970;-69
2022/09/16 07:29:07;;;;;;;7.45;2.83;;;14.90;1.00;;;16.26;63.70;97569.91;5082562;27;130684;-76
2022/09/16 07:31:37;;;;;;;8.10;2.08;;;15.20;1.00;;;16.20;62.02;97573.44;5082579;27;129779;-73
2022/09/16 07:34:08;;;;;;;7.95;2.15;;;14.90;1.00;;;16.10;62.78;97573.06;5081443;27;122629;-70
2022/09/16 07:36:39;;;;;;;6.53;1.58;;;14.80;1.00;;;16.23;62.05;97569.91;5082717;27;123454;-71
2022/09/16 07:39:09;;;;;;;8.65;1.80;;;14.80;1.00;;;16.24;62.57;97571.47;5082525;27;129917;-72
2022/09/16 07:41:42;;;;;;;7.43;2.03;;;14.80;1.00;;;16.24;63.21;97563.28;5066889;27;129636;-71
2022/09/16 07:44:14;;;;;;;10.82;1.83;;;14.70;1.00;;;15.91;63.52;97559.81;5083252;27;119925;-70
2022/09/16 07:46:43;;;;;;;7.95;2.15;;;14.60;1.00;;;16.07;65.56;97557.44;5067234;27;118627;-70
2022/09/16 07:49:15;;;;;;;8.02;2.00;;;15.00;1.00;;;16.03;64.82;97567.59;5082370;27;129892;-69
2022/09/16 07:51:45;;;;;;;6.80;1.58;;;15.00;1.00;;;16.02;64.18;97565.28;5082688;27;127867;-70
2022/09/16 07:54:16;;;;;;;7.35;2.20;;;14.80;1.00;;;16.36;64.46;97557.34;5082657;27;119518;-71
2022/09/16 07:56:46;;;;;;;10.40;2.08;;;15.10;1.00;;;16.41;64.03;97562.41;5082723;27;119360;-70
2022/09/16 07:59:19;;;;;;;8.07;2.03;;;14.90;1.00;;;16.61;63.95;97561.94;5080893;27;130193;-71
2022/09/16 08:01:49;;;;;;;11.93;2.20;;;15.10;1.00;;;16.65;62.69;97562.69;5082116;27;129719;-71
2022/09/16 08:04:18;;;;;;;12.15;1.98;;;15.40;1.00;;;16.64;61.84;97563.88;5082682;27;120196;-71
2022/09/16 08:06:47;;;;;;;13.95;2.67;;;15.40;1.00;;;16.62;61.54;97577.19;5082426;27;120660;-72
2022/09/16 08:09:15;;;;;;;5.15;1.70;;;15.20;1.00;;;16.38;63.92;97555.00;5081923;27;130111;-72
2022/09/16 08:11:45;;;;;;;9.68;1.70;;;15.00;1.00;;;16.63;63.99;97565.06;5081979;27;129409;-69
2022/09/16 08:14:14;;;;;;;7.35;1.98;;;15.30;1.00;;;16.60;64.06;97566.63;5067049;27;118776;-70
2022/09/16 08:16:42;;;;;;;5.57;2.20;;;15.30;1.00;;;16.67;63.77;97563.88;5082751;27;120291;-71
2022/09/16 08:19:11;;;;;;;7.72;2.20;;;15.40;1.00;;;16.52;63.19;97554.94;5081929;27;129983;-71
2022/09/16 08:21:40;;;;;;;13.45;2.47;;;15.00;1.00;;;16.60;62.99;97549.44;5063728;27;130453;-71
2022/09/16 08:24:10;;;;;;;6.97;1.67;;;15.00;1.00;;;16.50;63.79;97557.28;5080932;27;122506;-69
2022/09/16 08:26:39;;;;;;;6.20;1.80;;;15.20;1.00;;;17.05;62.35;97558.56;5081881;27;122100;-71
2022/09/16 08:29:09;;;;;;;3.88;1.55;;;15.70;1.00;;;16.89;61.48;97550.84;5081377;27;130570;-74
2022/09/16 08:31:38;;;;;;;10.30;2.15;;;15.40;1.00;;;16.74;62.26;97549.34;5081732;27;129283;-71
2022/09/16 08:34:06;;;;;;;6.10;2.35;;;15.40;1.00;;;16.94;61.14;97548.84;5066811;27;119525;-71
2022/09/16 08:36:35;;;;;;;9.13;2.20;;;15.30;1.00;;;16.68;61.74;97531.78;5081635;27;120454;-70
2022/09/16 08:39:04;;;;;;;6.15;1.70;;;15.20;1.00;;;17.19;61.01;97551.44;5081546;27;129902;-70
2022/09/16 08:42:20;;;;;;;8.82;2.00;;;15.80;1.00;;;17.16;58.53;97544.03;5081892;27;129493;-72
2022/09/16 08:45:00;;;;;;;6.20;1.80;;;15.60;1.00;;;16.85;58.83;97544.56;5080874;27;120337;-68
2022/09/16 08:47:44;;;;;;;7.93;1.77;;;15.40;1.00;;;17.29;58.05;97555.28;5084317;27;119418;-72
2022/09/16 08:50:18;;;;;;;4.22;2.08;;;15.70;1.00;;;17.56;57.23;97547.19;5079991;27;130043;-70
2022/09/16 08:52:48;;;;;;;6.25;2.47;;;15.70;1.00;;;17.75;57.91;97540.38;5063132;27;129451;-69
2022/09/16 08:55:24;;;;;;;5.38;1.90;;;16.10;1.00;;;17.89;57.59;97537.53;5081630;27;120146;-71
2022/09/16 08:57:58;;;;;;;9.38;2.45;;;16.40;1.00;;;17.98;56.68;97539.00;5081654;27;119598;-70
2022/09/16 09:00:28;;;;;;;8.52;2.03;;;16.30;1.00;;;18.16;53.59;97538.81;5081378;27;130460;-73
2022/09/16 09:03:02;;;;;;;5.50;1.73;;;16.30;1.00;;;17.89;56.10;97536.75;5065973;27;129324;-70
2022/09/16 09:05:43;;;;;;;6.00;1.63;;;16.10;1.00;;;17.99;54.24;97541.34;5081527;27;119981;-70
2022/09/16 09:08:40;;;;;;;5.47;1.60;;;16.40;1.00;;;18.54;54.30;97531.25;5066340;27;119126;-72
2022/09/16 09:11:17;;;;;;;9.53;2.40;;;17.10;1.00;;;18.21;53.71;97552.84;5080711;27;130143;-71
2022/09/16 09:14:02;;;;;;;8.30;2.10;;;16.80;1.00;;;17.68;55.71;97543.97;5080854;27;129748;-73
2022/09/16 09:16:44;;;;;;;8.70;2.22;;;16.10;1.00;;;17.38;55.84;97550.13;5079717;27;122143;-70
2022/09/16 09:19:31;;;;;;;10.90;2.58;;;15.60;1.00;;;17.01;55.14;97540.59;5081196;27;121792;-72
2022/09/16 09:22:13;;;;;;;6.55;1.67;;;15.70;1.00;;;16.92;54.62;97549.25;5080882;27;130162;-71
2022/09/16 09:25:09;;;;;;;6.57;2.13;;;15.80;1.00;;;17.35;55.02;97545.44;5062463;27;129995;-70
2022/09/16 09:27:49;;;;;;;5.60;1.67;;;15.80;1.00;;;17.66;56.16;97545.56;5080963;27;121354;-71
2022/09/16 09:30:23;;;;;;;8.30;1.60;;;16.40;1.00;;;17.06;53.83;97553.88;5065840;27;119214;-70
2022/09/16 09:33:13;;;;;;;10.70;2.00;;;15.70;1.00;;;17.06;53.74;97553.88;5080748;27;129866;-71
2022/09/16 09:36:01;;;;;;;6.65;1.80;;;15.60;1.00;;;17.27;53.00;97535.72;5066026;27;129306;-76
2022/09/16 09:38:58;;;;;;;4.38;1.85;;;15.60;1.00;;;17.21;53.31;97530.66;5081011;27;119396;-78
2022/09/16 09:41:31;;;;;;;;;;;15.70;1.00;;;17.68;50.13;97552.19;5081237;27;119482;-73
2022/09/16 09:44:34;;;;;;;11.82;1.75;;;16.20;1.00;;;17.91;49.99;97546.13;5079390;27;130575;-71
2022/09/16 09:47:08;;;;;;;13.55;2.13;;;16.50;1.00;;;17.85;49.65;97539.47;5082418;27;129681;-71
2022/09/16 09:49:45;;;;;;;6.07;1.60;;;16.30;1.00;;;17.89;49.86;97532.03;5080603;27;119655;-74
2022/09/16 09:52:21;;;;;;;8.05;1.80;;;16.20;1.00;;;18.24;50.97;97541.03;5080639;27;119604;-71
2022/09/16 09:54:51;;;;;;;4.45;1.40;;;16.80;1.00;;;18.68;48.36;97547.56;5080706;27;129872;-69
2022/09/16 09:57:29;;;;;;;5.70;1.60;;;17.10;1.00;;;18.68;48.54;97536.56;5066834;27;129743;-70
2022/09/16 10:00:07;;;;;;;8.13;1.80;;;17.10;1.00;;;18.89;47.00;97529.25;5084370;27;119802;-71
2022/09/16 10:02:42;;;;;;;6.78;2.38;;;17.40;1.00;;;19.21;44.77;97539.75;5084649;27;120734;-72
2022/09/16 10:05:21;;;;;;;6.10;1.42;;;17.50;1.00;;;19.37;43.77;97541.09;5068989;27;129014;-69
2022/09/16 10:07:55;;;;;;;2.70;1.13;;;17.40;1.00;;;19.44;43.43;97534.69;5051737;27;128888;-70
2022/09/16 10:10:25;;;;;;;5.50;1.40;;;17.60;1.00;;;19.37;41.86;97530.84;5082973;27;122329;-76
2022/09/16 10:12:54;;;;;;;7.13;1.67;;;17.60;1.00;;;19.56;42.99;97536.84;5068709;27;121743;-77
2022/09/16 10:15:27;;;;;;;6.40;1.55;;;17.80;1.00;;;19.67;42.71;97525.66;5083602;27;129860;-71
2022/09/16 10:17:58;;;;;;;6.07;1.50;;;17.50;1.00;;;19.97;43.05;97529.44;5083651;27;130840;-69
2022/09/16 10:20:33;;;;;;;6.07;1.88;;;18.00;1.00;;;19.46;43.21;97535.03;5084046;27;120109;-71
2022/09/16 10:23:06;;;;;;;7.40;1.70;;;17.40;1.00;;;19.26;44.63;97541.25;5084139;27;119250;-71
2022/09/16 10:25:35;;;;;;;7.43;1.60;;;17.40;1.00;;;19.36;43.31;97536.78;5083824;27;130418;-70
2022/09/16 10:28:06;;;;;;;6.30;1.77;;;16.80;1.00;;;19.26;43.06;97530.25;5083733;27;129641;-71
2022/09/16 10:30:48;;;;;;;10.18;1.70;;;17.30;1.00;;;19.50;41.16;97528.28;5083801;27;119878;-75
2022/09/16 10:33:24;;;;;;;8.77;1.85;;;17.60;1.00;;;19.48;40.15;97535.41;5065290;27;120012;-76
2022/09/16 10:35:59;;;;;;;8.32;1.60;;;17.80;1.00;;;19.81;39.82;97541.16;5082011;27;129988;-71
2022/09/16 10:38:37;;;;;;;5.38;2.00;;;17.80;1.00;;;19.68;40.67;97532.69;5083262;27;129736;-75
2022/09/16 10:41:09;;;;;;;11.18;2.65;;;17.50;1.00;;;19.49;41.59;97545.19;5083778;27;119553;-73
2022/09/16 10:43:46;;;;;;;8.73;2.00;;;17.30;1.00;;;19.29;41.99;97543.19;5068313;27;118380;-72